sensor_id;sensor_type;location;lat;lon;timestamp;P1;durP1;ratioP1;P2;durP2;ratioP2
22632;SDS011;11483;55.828;37.488;2022-08-03T00:01:43;27.92;;;10.75;;
22632;SDS011;11483;55.828;37.488;2022-08-03T00:04:09;37.88;;;11.27;;
22632;SDS011;11483;55.828;37.488;2022-08-03T00:06:36;33.15;;;10.27;;
22632;SDS011;11483;55.828;37.488;2022-08-03T00:09:03;34.95;;;11.57;;
22632;SDS011;11483;55.828;37.488;2022-08-03T00:11:29;24.33;;;9.88;;
22632;SDS011;11483;55.828;37.488;2022-08-03T00:13:55;35.08;;;11.38;;
22632;SDS011;11483;55.828;37.488;2022-08-03T00:16:21;28.15;;;10.55;;
22632;SDS011;11483;55.828;37.488;2022-08-03T00:18:49;29.67;;;9.10;;
22632;SDS011;11483;55.828;37.488;2022-08-03T00:21:15;25.88;;;9.90;;
22632;SDS011;11483;55.828;37.488;2022-08-03T00:23:41;22.08;;;8.73;;
22632;SDS011;11483;55.828;37.488;2022-08-03T00:26:07;20.50;;;10.05;;
22632;SDS011;11483;55.828;37.488;2022-08-03T00:28:33;21.02;;;9.77;;
22632;SDS011;11483;55.828;37.488;2022-08-03T00:30:59;24.83;;;8.82;;
22632;SDS011;11483;55.828;37.488;2022-08-03T02:05:03;24.02;;;9.80;;
22632;SDS011;11483;55.828;37.488;2022-08-03T02:07:32;33.22;;;10.27;;
22632;SDS011;11483;55.828;37.488;2022-08-03T02:10:02;23.65;;;9.77;;
22632;SDS011;11483;55.828;37.488;2022-08-03T02:12:30;31.85;;;10.23;;
22632;SDS011;11483;55.828;37.488;2022-08-03T02:14:59;20.83;;;9.90;;
22632;SDS011;11483;55.828;37.488;2022-08-03T02:17:26;24.73;;;10.02;;
22632;SDS011;11483;55.828;37.488;2022-08-03T02:19:53;32.20;;;9.90;;
22632;SDS011;11483;55.828;37.488;2022-08-03T02:22:23;24.80;;;9.60;;
22632;SDS011;11483;55.828;37.488;2022-08-03T02:24:49;25.85;;;9.90;;
22632;SDS011;11483;55.828;37.488;2022-08-03T02:27:25;29.55;;;10.23;;
22632;SDS011;11483;55.828;37.488;2022-08-03T02:29:55;20.60;;;9.75;;
22632;SDS011;11483;55.828;37.488;2022-08-03T02:32:28;25.98;;;9.95;;
22632;SDS011;11483;55.828;37.488;2022-08-03T02:34:58;26.20;;;10.13;;
22632;SDS011;11483;55.828;37.488;2022-08-03T02:37:29;32.60;;;11.57;;
22632;SDS011;11483;55.828;37.488;2022-08-03T02:40:00;25.88;;;10.77;;
22632;SDS011;11483;55.828;37.488;2022-08-03T02:42:28;31.05;;;9.85;;
22632;SDS011;11483;55.828;37.488;2022-08-03T02:44:57;19.08;;;9.88;;
22632;SDS011;11483;55.828;37.488;2022-08-03T02:47:26;21.77;;;9.90;;
22632;SDS011;11483;55.828;37.488;2022-08-03T02:49:54;25.40;;;10.25;;
22632;SDS011;11483;55.828;37.488;2022-08-03T02:52:23;36.78;;;10.35;;
22632;SDS011;11483;55.828;37.488;2022-08-03T02:54:54;25.05;;;9.70;;
22632;SDS011;11483;55.828;37.488;2022-08-03T02:57:23;21.80;;;9.68;;
22632;SDS011;11483;55.828;37.488;2022-08-03T02:59:52;28.80;;;10.98;;
22632;SDS011;11483;55.828;37.488;2022-08-03T03:02:19;27.55;;;10.73;;
22632;SDS011;11483;55.828;37.488;2022-08-03T03:04:46;23.88;;;9.57;;
22632;SDS011;11483;55.828;37.488;2022-08-03T03:07:15;25.70;;;10.80;;
22632;SDS011;11483;55.828;37.488;2022-08-03T03:09:42;22.75;;;10.82;;
22632;SDS011;11483;55.828;37.488;2022-08-03T03:12:08;31.95;;;10.68;;
22632;SDS011;11483;55.828;37.488;2022-08-03T03:14:37;24.88;;;9.70;;
22632;SDS011;11483;55.828;37.488;2022-08-03T03:17:05;21.08;;;10.45;;
22632;SDS011;11483;55.828;37.488;2022-08-03T03:19:32;29.48;;;10.05;;
22632;SDS011;11483;55.828;37.488;2022-08-03T03:21:59;21.00;;;10.00;;
22632;SDS011;11483;55.828;37.488;2022-08-03T03:24:27;21.45;;;9.82;;
22632;SDS011;11483;55.828;37.488;2022-08-03T03:26:54;24.27;;;10.50;;
22632;SDS011;11483;55.828;37.488;2022-08-03T03:29:21;23.65;;;10.32;;
22632;SDS011;11483;55.828;37.488;2022-08-03T03:31:47;20.50;;;10.05;;
22632;SDS011;11483;55.828;37.488;2022-08-03T03:34:13;32.08;;;10.73;;
22632;SDS011;11483;55.828;37.488;2022-08-03T03:36:39;33.80;;;11.15;;
22632;SDS011;11483;55.828;37.488;2022-08-03T03:39:05;21.98;;;10.55;;
22632;SDS011;11483;55.828;37.488;2022-08-03T03:41:31;29.35;;;10.15;;
22632;SDS011;11483;55.828;37.488;2022-08-03T03:43:58;25.77;;;10.80;;
22632;SDS011;11483;55.828;37.488;2022-08-03T03:46:24;25.27;;;10.93;;
22632;SDS011;11483;55.828;37.488;2022-08-03T03:48:50;24.65;;;11.38;;
22632;SDS011;11483;55.828;37.488;2022-08-03T03:51:16;30.70;;;10.55;;
22632;SDS011;11483;55.828;37.488;2022-08-03T03:53:57;23.55;;;11.82;;
22632;SDS011;11483;55.828;37.488;2022-08-03T03:56:24;28.30;;;10.88;;
22632;SDS011;11483;55.828;37.488;2022-08-03T03:58:50;32.92;;;11.65;;
22632;SDS011;11483;55.828;37.488;2022-08-03T04:01:17;25.70;;;11.10;;
22632;SDS011;11483;55.828;37.488;2022-08-03T04:03:43;25.13;;;10.57;;
22632;SDS011;11483;55.828;37.488;2022-08-03T04:06:09;27.10;;;10.77;;
22632;SDS011;11483;55.828;37.488;2022-08-03T04:08:55;19.70;;;10.50;;
22632;SDS011;11483;55.828;37.488;2022-08-03T04:11:51;18.55;;;10.90;;
22632;SDS011;11483;55.828;37.488;2022-08-03T04:14:19;28.45;;;12.02;;
22632;SDS011;11483;55.828;37.488;2022-08-03T04:16:54;18.00;;;10.32;;
22632;SDS011;11483;55.828;37.488;2022-08-03T04:21:59;23.83;;;11.65;;
22632;SDS011;11483;55.828;37.488;2022-08-03T04:24:32;28.00;;;10.95;;
22632;SDS011;11483;55.828;37.488;2022-08-03T04:27:03;26.05;;;11.07;;
22632;SDS011;11483;55.828;37.488;2022-08-03T04:29:32;23.33;;;10.18;;
22632;SDS011;11483;55.828;37.488;2022-08-03T04:32:02;26.10;;;10.80;;
22632;SDS011;11483;55.828;37.488;2022-08-03T04:34:31;25.80;;;11.15;;
22632;SDS011;11483;55.828;37.488;2022-08-03T04:36:57;21.08;;;11.07;;
22632;SDS011;11483;55.828;37.488;2022-08-03T04:39:27;35.38;;;12.45;;
22632;SDS011;11483;55.828;37.488;2022-08-03T04:41:57;24.77;;;11.57;;
22632;SDS011;11483;55.828;37.488;2022-08-03T04:44:25;29.63;;;11.55;;
22632;SDS011;11483;55.828;37.488;2022-08-03T04:46:53;23.38;;;10.57;;
22632;SDS011;11483;55.828;37.488;2022-08-03T04:49:20;26.27;;;11.43;;
22632;SDS011;11483;55.828;37.488;2022-08-03T04:51:47;25.50;;;10.15;;
22632;SDS011;11483;55.828;37.488;2022-08-03T04:54:14;29.67;;;11.35;;
22632;SDS011;11483;55.828;37.488;2022-08-03T04:56:41;24.13;;;11.02;;
22632;SDS011;11483;55.828;37.488;2022-08-03T04:59:07;21.63;;;10.48;;
22632;SDS011;11483;55.828;37.488;2022-08-03T05:01:34;22.98;;;10.77;;
22632;SDS011;11483;55.828;37.488;2022-08-03T05:04:00;24.98;;;9.85;;
22632;SDS011;11483;55.828;37.488;2022-08-03T05:06:26;28.27;;;10.63;;
22632;SDS011;11483;55.828;37.488;2022-08-03T05:08:52;36.60;;;10.88;;
22632;SDS011;11483;55.828;37.488;2022-08-03T05:11:18;22.40;;;11.48;;
22632;SDS011;11483;55.828;37.488;2022-08-03T05:13:44;24.75;;;10.55;;
22632;SDS011;11483;55.828;37.488;2022-08-03T05:16:10;24.90;;;10.80;;
22632;SDS011;11483;55.828;37.488;2022-08-03T05:18:38;22.45;;;10.18;;
22632;SDS011;11483;55.828;37.488;2022-08-03T05:21:04;27.63;;;10.73;;
22632;SDS011;11483;55.828;37.488;2022-08-03T05:23:30;28.50;;;9.60;;
22632;SDS011;11483;55.828;37.488;2022-08-03T05:25:56;28.45;;;9.90;;
22632;SDS011;11483;55.828;37.488;2022-08-03T05:28:21;19.08;;;9.10;;
22632;SDS011;11483;55.828;37.488;2022-08-03T05:30:47;24.83;;;10.60;;
22632;SDS011;11483;55.828;37.488;2022-08-03T05:33:13;31.08;;;10.20;;
22632;SDS011;11483;55.828;37.488;2022-08-03T05:35:39;22.38;;;10.40;;
22632;SDS011;11483;55.828;37.488;2022-08-03T05:38:05;22.70;;;10.10;;
22632;SDS011;11483;55.828;37.488;2022-08-03T05:40:31;21.42;;;9.63;;
22632;SDS011;11483;55.828;37.488;2022-08-03T05:42:57;27.75;;;9.27;;
22632;SDS011;11483;55.828;37.488;2022-08-03T05:45:23;22.10;;;8.85;;
22632;SDS011;11483;55.828;37.488;2022-08-03T05:47:49;30.88;;;8.82;;
22632;SDS011;11483;55.828;37.488;2022-08-03T07:00:50;27.10;;;5.35;;
22632;SDS011;11483;55.828;37.488;2022-08-03T07:03:16;9.38;;;5.00;;
22632;SDS011;11483;55.828;37.488;2022-08-03T07:05:42;13.77;;;5.20;;
22632;SDS011;11483;55.828;37.488;2022-08-03T07:08:11;16.45;;;4.63;;
22632;SDS011;11483;55.828;37.488;2022-08-03T07:10:38;9.37;;;4.20;;
22632;SDS011;11483;55.828;37.488;2022-08-03T07:13:04;15.15;;;4.72;;
22632;SDS011;11483;55.828;37.488;2022-08-03T07:15:30;12.68;;;4.47;;
22632;SDS011;11483;55.828;37.488;2022-08-03T07:17:56;13.63;;;4.70;;
22632;SDS011;11483;55.828;37.488;2022-08-03T07:20:23;19.40;;;5.00;;
22632;SDS011;11483;55.828;37.488;2022-08-03T07:22:49;13.75;;;4.45;;
22632;SDS011;11483;55.828;37.488;2022-08-03T07:25:15;17.83;;;4.88;;
22632;SDS011;11483;55.828;37.488;2022-08-03T07:27:44;26.40;;;4.70;;
22632;SDS011;11483;55.828;37.488;2022-08-03T07:30:11;19.08;;;4.70;;
22632;SDS011;11483;55.828;37.488;2022-08-03T07:32:38;10.07;;;3.50;;
22632;SDS011;11483;55.828;37.488;2022-08-03T07:35:04;11.85;;;4.10;;
22632;SDS011;11483;55.828;37.488;2022-08-03T07:37:31;10.77;;;3.60;;
22632;SDS011;11483;55.828;37.488;2022-08-03T07:39:58;6.07;;;3.50;;
22632;SDS011;11483;55.828;37.488;2022-08-03T07:42:28;12.70;;;4.10;;
22632;SDS011;11483;55.828;37.488;2022-08-03T07:44:54;10.73;;;3.90;;
22632;SDS011;11483;55.828;37.488;2022-08-03T07:47:22;9.15;;;3.97;;
22632;SDS011;11483;55.828;37.488;2022-08-03T07:49:49;8.27;;;4.05;;
22632;SDS011;11483;55.828;37.488;2022-08-03T07:52:16;9.20;;;3.60;;
22632;SDS011;11483;55.828;37.488;2022-08-03T07:55:01;11.18;;;3.75;;
22632;SDS011;11483;55.828;37.488;2022-08-03T07:57:27;18.85;;;4.38;;
22632;SDS011;11483;55.828;37.488;2022-08-03T07:59:53;7.10;;;3.47;;
22632;SDS011;11483;55.828;37.488;2022-08-03T08:02:19;10.57;;;3.80;;
22632;SDS011;11483;55.828;37.488;2022-08-03T08:04:45;14.67;;;4.13;;
22632;SDS011;11483;55.828;37.488;2022-08-03T08:07:10;11.70;;;3.70;;
22632;SDS011;11483;55.828;37.488;2022-08-03T08:09:36;38.53;;;5.20;;
22632;SDS011;11483;55.828;37.488;2022-08-03T08:12:02;8.43;;;3.90;;
22632;SDS011;11483;55.828;37.488;2022-08-03T08:14:28;14.02;;;3.60;;
22632;SDS011;11483;55.828;37.488;2022-08-03T08:16:54;10.07;;;3.72;;
22632;SDS011;11483;55.828;37.488;2022-08-03T08:19:20;8.48;;;4.00;;
22632;SDS011;11483;55.828;37.488;2022-08-03T08:21:46;9.38;;;3.60;;
22632;SDS011;11483;55.828;37.488;2022-08-03T08:24:12;10.25;;;3.83;;
22632;SDS011;11483;55.828;37.488;2022-08-03T08:31:30;11.05;;;3.28;;
22632;SDS011;11483;55.828;37.488;2022-08-03T08:33:56;5.80;;;3.70;;
22632;SDS011;11483;55.828;37.488;2022-08-03T08:36:22;43.00;;;5.20;;
22632;SDS011;11483;55.828;37.488;2022-08-03T08:38:48;14.43;;;3.80;;
22632;SDS011;11483;55.828;37.488;2022-08-03T08:41:14;6.60;;;3.30;;
22632;SDS011;11483;55.828;37.488;2022-08-03T08:43:40;11.15;;;3.90;;
22632;SDS011;11483;55.828;37.488;2022-08-03T08:46:07;8.57;;;3.70;;
22632;SDS011;11483;55.828;37.488;2022-08-03T08:48:38;6.50;;;3.33;;
22632;SDS011;11483;55.828;37.488;2022-08-03T08:51:06;5.18;;;3.03;;
22632;SDS011;11483;55.828;37.488;2022-08-03T08:53:35;10.15;;;3.45;;
22632;SDS011;11483;55.828;37.488;2022-08-03T08:56:02;8.15;;;3.15;;
22632;SDS011;11483;55.828;37.488;2022-08-03T08:58:31;10.63;;;3.30;;
22632;SDS011;11483;55.828;37.488;2022-08-03T09:01:01;10.93;;;4.88;;
22632;SDS011;11483;55.828;37.488;2022-08-03T09:03:28;16.97;;;3.90;;
22632;SDS011;11483;55.828;37.488;2022-08-03T09:06:00;20.05;;;4.18;;
22632;SDS011;11483;55.828;37.488;2022-08-03T09:08:27;8.05;;;3.40;;
22632;SDS011;11483;55.828;37.488;2022-08-03T09:11:00;13.82;;;3.72;;
22632;SDS011;11483;55.828;37.488;2022-08-03T09:13:25;6.65;;;3.00;;
22632;SDS011;11483;55.828;37.488;2022-08-03T09:18:38;11.57;;;3.20;;
22632;SDS011;11483;55.828;37.488;2022-08-03T09:23:52;8.55;;;3.33;;
22632;SDS011;11483;55.828;37.488;2022-08-03T09:26:23;9.50;;;3.40;;
22632;SDS011;11483;55.828;37.488;2022-08-03T09:28:57;7.57;;;3.55;;
22632;SDS011;11483;55.828;37.488;2022-08-03T09:31:43;10.57;;;3.50;;
22632;SDS011;11483;55.828;37.488;2022-08-03T09:34:11;17.85;;;3.72;;
22632;SDS011;11483;55.828;37.488;2022-08-03T09:36:47;3.63;;;2.95;;
22632;SDS011;11483;55.828;37.488;2022-08-03T09:39:21;9.27;;;3.28;;
22632;SDS011;11483;55.828;37.488;2022-08-03T09:42:05;13.48;;;3.20;;
22632;SDS011;11483;55.828;37.488;2022-08-03T09:44:40;13.00;;;3.40;;
22632;SDS011;11483;55.828;37.488;2022-08-03T10:26:33;22.73;;;4.80;;
22632;SDS011;11483;55.828;37.488;2022-08-03T10:29:03;10.52;;;4.30;;
22632;SDS011;11483;55.828;37.488;2022-08-03T10:31:43;11.15;;;4.40;;
22632;SDS011;11483;55.828;37.488;2022-08-03T10:34:13;14.18;;;4.50;;
22632;SDS011;11483;55.828;37.488;2022-08-03T10:36:42;17.15;;;4.63;;
22632;SDS011;11483;55.828;37.488;2022-08-03T10:39:09;16.90;;;4.47;;
22632;SDS011;11483;55.828;37.488;2022-08-03T10:41:39;21.70;;;5.20;;
22632;SDS011;11483;55.828;37.488;2022-08-03T10:44:20;11.77;;;4.57;;
22632;SDS011;11483;55.828;37.488;2022-08-03T10:46:48;21.92;;;4.85;;
22632;SDS011;11483;55.828;37.488;2022-08-03T10:49:16;20.35;;;4.90;;
22632;SDS011;11483;55.828;37.488;2022-08-03T10:51:46;18.25;;;4.70;;
22632;SDS011;11483;55.828;37.488;2022-08-03T10:58:09;19.65;;;4.47;;
22632;SDS011;11483;55.828;37.488;2022-08-03T11:00:18;19.63;;;4.90;;
22632;SDS011;11483;55.828;37.488;2022-08-03T11:05:52;19.27;;;5.00;;
22632;SDS011;11483;55.828;37.488;2022-08-03T11:08:21;9.32;;;4.28;;
22632;SDS011;11483;55.828;37.488;2022-08-03T11:11:41;7.68;;;4.47;;
22632;SDS011;11483;55.828;37.488;2022-08-03T11:16:24;11.77;;;4.75;;
22632;SDS011;11483;55.828;37.488;2022-08-03T11:18:58;13.50;;;4.57;;
22632;SDS011;11483;55.828;37.488;2022-08-03T11:35:09;20.52;;;5.22;;
22632;SDS011;11483;55.828;37.488;2022-08-03T11:37:36;13.87;;;4.93;;
22632;SDS011;11483;55.828;37.488;2022-08-03T11:43:06;17.98;;;4.70;;
22632;SDS011;11483;55.828;37.488;2022-08-03T11:51:05;21.10;;;4.70;;
22632;SDS011;11483;55.828;37.488;2022-08-03T11:53:32;28.67;;;5.13;;
22632;SDS011;11483;55.828;37.488;2022-08-03T11:55:59;12.23;;;4.50;;
22632;SDS011;11483;55.828;37.488;2022-08-03T11:58:26;8.02;;;4.38;;
22632;SDS011;11483;55.828;37.488;2022-08-03T12:01:03;23.70;;;4.70;;
22632;SDS011;11483;55.828;37.488;2022-08-03T12:03:33;14.57;;;4.45;;
22632;SDS011;11483;55.828;37.488;2022-08-03T12:06:00;12.35;;;4.40;;
22632;SDS011;11483;55.828;37.488;2022-08-03T12:10:55;13.60;;;4.50;;
22632;SDS011;11483;55.828;37.488;2022-08-03T12:13:21;20.55;;;5.07;;
22632;SDS011;11483;55.828;37.488;2022-08-03T12:15:52;15.57;;;4.97;;
22632;SDS011;11483;55.828;37.488;2022-08-03T12:18:19;32.50;;;11.35;;
22632;SDS011;11483;55.828;37.488;2022-08-03T12:20:46;31.30;;;4.85;;
22632;SDS011;11483;55.828;37.488;2022-08-03T12:23:17;8.90;;;4.30;;
22632;SDS011;11483;55.828;37.488;2022-08-03T12:25:44;14.05;;;4.43;;
22632;SDS011;11483;55.828;37.488;2022-08-03T12:28:12;9.27;;;4.43;;
22632;SDS011;11483;55.828;37.488;2022-08-03T12:30:41;10.93;;;4.38;;
22632;SDS011;11483;55.828;37.488;2022-08-03T12:33:13;16.90;;;4.88;;
22632;SDS011;11483;55.828;37.488;2022-08-03T12:36:01;14.05;;;4.05;;
22632;SDS011;11483;55.828;37.488;2022-08-03T12:38:34;13.15;;;4.60;;
22632;SDS011;11483;55.828;37.488;2022-08-03T12:41:06;8.93;;;4.20;;
22632;SDS011;11483;55.828;37.488;2022-08-03T12:43:35;17.20;;;4.50;;
22632;SDS011;11483;55.828;37.488;2022-08-03T12:48:56;12.45;;;4.55;;
22632;SDS011;11483;55.828;37.488;2022-08-03T12:54:09;14.40;;;4.60;;
22632;SDS011;11483;55.828;37.488;2022-08-03T12:56:59;11.15;;;4.80;;
22632;SDS011;11483;55.828;37.488;2022-08-03T12:59:28;16.42;;;4.90;;
22632;SDS011;11483;55.828;37.488;2022-08-03T13:01:56;14.70;;;4.70;;
22632;SDS011;11483;55.828;37.488;2022-08-03T13:04:29;18.50;;;4.90;;
22632;SDS011;11483;55.828;37.488;2022-08-03T13:07:03;10.63;;;4.53;;
22632;SDS011;11483;55.828;37.488;2022-08-03T13:09:41;12.00;;;4.13;;
22632;SDS011;11483;55.828;37.488;2022-08-03T13:12:15;11.70;;;4.60;;
22632;SDS011;11483;55.828;37.488;2022-08-03T13:14:43;17.20;;;5.10;;
22632;SDS011;11483;55.828;37.488;2022-08-03T13:17:13;9.68;;;4.55;;
22632;SDS011;11483;55.828;37.488;2022-08-03T13:19:42;15.48;;;4.70;;
22632;SDS011;11483;55.828;37.488;2022-08-03T13:22:10;16.63;;;5.00;;
22632;SDS011;11483;55.828;37.488;2022-08-03T13:24:41;12.30;;;4.53;;
22632;SDS011;11483;55.828;37.488;2022-08-03T13:27:07;13.50;;;4.65;;
22632;SDS011;11483;55.828;37.488;2022-08-03T13:29:33;13.10;;;4.67;;
22632;SDS011;11483;55.828;37.488;2022-08-03T13:32:02;15.40;;;4.37;;
22632;SDS011;11483;55.828;37.488;2022-08-03T13:34:29;12.80;;;4.32;;
22632;SDS011;11483;55.828;37.488;2022-08-03T13:36:55;11.20;;;4.20;;
22632;SDS011;11483;55.828;37.488;2022-08-03T13:39:21;14.27;;;4.80;;
22632;SDS011;11483;55.828;37.488;2022-08-03T13:41:47;9.27;;;4.20;;
22632;SDS011;11483;55.828;37.488;2022-08-03T13:44:13;11.63;;;4.30;;
22632;SDS011;11483;55.828;37.488;2022-08-03T13:46:39;18.08;;;4.47;;
22632;SDS011;11483;55.828;37.488;2022-08-03T13:49:05;9.80;;;4.53;;
22632;SDS011;11483;55.828;37.488;2022-08-03T13:51:32;11.67;;;4.20;;
22632;SDS011;11483;55.828;37.488;2022-08-03T13:53:59;11.50;;;4.50;;
22632;SDS011;11483;55.828;37.488;2022-08-03T13:56:25;9.63;;;4.53;;
22632;SDS011;11483;55.828;37.488;2022-08-03T13:58:51;10.30;;;4.45;;
22632;SDS011;11483;55.828;37.488;2022-08-03T14:01:18;13.40;;;4.40;;
22632;SDS011;11483;55.828;37.488;2022-08-03T14:03:44;6.90;;;3.97;;
22632;SDS011;11483;55.828;37.488;2022-08-03T14:06:12;11.43;;;4.07;;
22632;SDS011;11483;55.828;37.488;2022-08-03T14:08:39;12.27;;;4.50;;
22632;SDS011;11483;55.828;37.488;2022-08-03T14:11:05;10.85;;;4.32;;
22632;SDS011;11483;55.828;37.488;2022-08-03T14:13:31;10.35;;;4.00;;
22632;SDS011;11483;55.828;37.488;2022-08-03T14:15:57;13.23;;;4.50;;
22632;SDS011;11483;55.828;37.488;2022-08-03T14:18:23;10.32;;;4.05;;
22632;SDS011;11483;55.828;37.488;2022-08-03T14:28:06;7.57;;;3.75;;
22632;SDS011;11483;55.828;37.488;2022-08-03T14:30:32;9.63;;;3.78;;
22632;SDS011;11483;55.828;37.488;2022-08-03T14:32:59;11.55;;;3.22;;
22632;SDS011;11483;55.828;37.488;2022-08-03T14:35:24;13.25;;;4.50;;
22632;SDS011;11483;55.828;37.488;2022-08-03T14:37:50;18.88;;;4.35;;
22632;SDS011;11483;55.828;37.488;2022-08-03T14:40:17;18.70;;;3.90;;
22632;SDS011;11483;55.828;37.488;2022-08-03T14:42:43;8.00;;;3.58;;
22632;SDS011;11483;55.828;37.488;2022-08-03T14:45:09;55.63;;;6.63;;
22632;SDS011;11483;55.828;37.488;2022-08-03T14:47:37;18.70;;;4.30;;
22632;SDS011;11483;55.828;37.488;2022-08-03T14:50:03;33.95;;;5.40;;
22632;SDS011;11483;55.828;37.488;2022-08-03T14:52:30;20.90;;;4.50;;
22632;SDS011;11483;55.828;37.488;2022-08-03T14:54:56;9.97;;;3.80;;
22632;SDS011;11483;55.828;37.488;2022-08-03T14:57:23;16.13;;;4.28;;
22632;SDS011;11483;55.828;37.488;2022-08-03T14:59:49;25.95;;;4.57;;
22632;SDS011;11483;55.828;37.488;2022-08-03T15:02:15;20.58;;;4.85;;
22632;SDS011;11483;55.828;37.488;2022-08-03T15:04:40;19.73;;;4.55;;
22632;SDS011;11483;55.828;37.488;2022-08-03T15:07:06;32.43;;;4.50;;
22632;SDS011;11483;55.828;37.488;2022-08-03T15:09:32;18.60;;;4.73;;
22632;SDS011;11483;55.828;37.488;2022-08-03T15:11:58;32.20;;;5.50;;
22632;SDS011;11483;55.828;37.488;2022-08-03T15:14:24;18.38;;;4.47;;
22632;SDS011;11483;55.828;37.488;2022-08-03T15:16:50;15.23;;;3.87;;
22632;SDS011;11483;55.828;37.488;2022-08-03T15:19:16;17.03;;;4.20;;
22632;SDS011;11483;55.828;37.488;2022-08-03T15:21:42;13.27;;;3.83;;
22632;SDS011;11483;55.828;37.488;2022-08-03T15:24:08;19.00;;;4.75;;
22632;SDS011;11483;55.828;37.488;2022-08-03T15:26:34;24.95;;;4.50;;
22632;SDS011;11483;55.828;37.488;2022-08-03T15:28:59;21.92;;;4.50;;
22632;SDS011;11483;55.828;37.488;2022-08-03T15:31:25;15.85;;;4.07;;
22632;SDS011;11483;55.828;37.488;2022-08-03T15:33:51;13.23;;;4.33;;
22632;SDS011;11483;55.828;37.488;2022-08-03T15:36:17;19.48;;;4.18;;
22632;SDS011;11483;55.828;37.488;2022-08-03T15:38:44;12.68;;;4.35;;
22632;SDS011;11483;55.828;37.488;2022-08-03T15:41:10;18.92;;;4.05;;
22632;SDS011;11483;55.828;37.488;2022-08-03T15:43:39;16.67;;;4.53;;
22632;SDS011;11483;55.828;37.488;2022-08-03T15:46:05;19.15;;;4.68;;
22632;SDS011;11483;55.828;37.488;2022-08-03T15:48:32;16.17;;;4.57;;
22632;SDS011;11483;55.828;37.488;2022-08-03T15:50:58;23.98;;;5.03;;
22632;SDS011;11483;55.828;37.488;2022-08-03T15:53:23;13.38;;;4.32;;
22632;SDS011;11483;55.828;37.488;2022-08-03T15:55:49;8.93;;;4.20;;
22632;SDS011;11483;55.828;37.488;2022-08-03T15:58:15;20.38;;;4.85;;
22632;SDS011;11483;55.828;37.488;2022-08-03T16:00:41;19.77;;;4.53;;
22632;SDS011;11483;55.828;37.488;2022-08-03T16:03:07;13.93;;;4.30;;
22632;SDS011;11483;55.828;37.488;2022-08-03T16:05:34;21.40;;;5.10;;
22632;SDS011;11483;55.828;37.488;2022-08-03T16:08:00;20.13;;;4.30;;
22632;SDS011;11483;55.828;37.488;2022-08-03T16:10:26;17.15;;;4.30;;
22632;SDS011;11483;55.828;37.488;2022-08-03T16:12:54;14.07;;;4.45;;
22632;SDS011;11483;55.828;37.488;2022-08-03T16:15:22;16.07;;;4.23;;
22632;SDS011;11483;55.828;37.488;2022-08-03T16:17:48;13.65;;;4.30;;
22632;SDS011;11483;55.828;37.488;2022-08-03T16:20:17;19.90;;;4.80;;
22632;SDS011;11483;55.828;37.488;2022-08-03T16:22:44;15.50;;;4.15;;
22632;SDS011;11483;55.828;37.488;2022-08-03T16:25:12;22.45;;;4.80;;
22632;SDS011;11483;55.828;37.488;2022-08-03T16:27:39;10.15;;;4.72;;
22632;SDS011;11483;55.828;37.488;2022-08-03T16:30:05;15.27;;;4.70;;
22632;SDS011;11483;55.828;37.488;2022-08-03T16:32:33;21.83;;;5.18;;
22632;SDS011;11483;55.828;37.488;2022-08-03T16:34:59;18.35;;;5.30;;
22632;SDS011;11483;55.828;37.488;2022-08-03T16:37:26;21.67;;;5.13;;
22632;SDS011;11483;55.828;37.488;2022-08-03T16:39:52;24.85;;;7.00;;
22632;SDS011;11483;55.828;37.488;2022-08-03T16:42:18;15.25;;;5.47;;
22632;SDS011;11483;55.828;37.488;2022-08-03T16:44:47;11.55;;;5.45;;
22632;SDS011;11483;55.828;37.488;2022-08-03T16:47:13;19.88;;;5.45;;
22632;SDS011;11483;55.828;37.488;2022-08-03T16:49:39;15.70;;;5.75;;
22632;SDS011;11483;55.828;37.488;2022-08-03T16:52:05;14.57;;;5.60;;
22632;SDS011;11483;55.828;37.488;2022-08-03T16:54:31;18.23;;;5.78;;
22632;SDS011;11483;55.828;37.488;2022-08-03T16:56:56;15.23;;;6.30;;
22632;SDS011;11483;55.828;37.488;2022-08-03T16:59:22;20.17;;;5.63;;
22632;SDS011;11483;55.828;37.488;2022-08-03T17:01:48;12.15;;;5.30;;
22632;SDS011;11483;55.828;37.488;2022-08-03T17:04:14;18.80;;;6.00;;
22632;SDS011;11483;55.828;37.488;2022-08-03T17:06:40;17.92;;;6.05;;
22632;SDS011;11483;55.828;37.488;2022-08-03T17:09:08;12.57;;;5.40;;
22632;SDS011;11483;55.828;37.488;2022-08-03T17:11:36;10.07;;;5.57;;
22632;SDS011;11483;55.828;37.488;2022-08-03T17:14:03;11.77;;;6.05;;
22632;SDS011;11483;55.828;37.488;2022-08-03T17:16:29;22.58;;;5.50;;
22632;SDS011;11483;55.828;37.488;2022-08-03T17:18:55;16.33;;;5.80;;
22632;SDS011;11483;55.828;37.488;2022-08-03T17:21:25;15.80;;;6.20;;
22632;SDS011;11483;55.828;37.488;2022-08-03T17:24:12;14.80;;;5.97;;
22632;SDS011;11483;55.828;37.488;2022-08-03T17:26:47;16.35;;;6.45;;
22632;SDS011;11483;55.828;37.488;2022-08-03T17:29:19;14.70;;;5.82;;
22632;SDS011;11483;55.828;37.488;2022-08-03T17:31:48;17.48;;;5.95;;
22632;SDS011;11483;55.828;37.488;2022-08-03T17:34:16;8.93;;;5.43;;
22632;SDS011;11483;55.828;37.488;2022-08-03T17:36:43;17.75;;;5.82;;
22632;SDS011;11483;55.828;37.488;2022-08-03T17:39:12;22.38;;;5.95;;
22632;SDS011;11483;55.828;37.488;2022-08-03T17:41:42;16.70;;;5.45;;
22632;SDS011;11483;55.828;37.488;2022-08-03T17:44:09;28.17;;;6.10;;
22632;SDS011;11483;55.828;37.488;2022-08-03T17:46:35;11.38;;;5.78;;
22632;SDS011;11483;55.828;37.488;2022-08-03T17:49:01;21.65;;;6.10;;
22632;SDS011;11483;55.828;37.488;2022-08-03T17:51:33;24.00;;;6.78;;
22632;SDS011;11483;55.828;37.488;2022-08-03T17:56:45;21.95;;;6.10;;
22632;SDS011;11483;55.828;37.488;2022-08-03T17:59:28;17.45;;;6.85;;
22632;SDS011;11483;55.828;37.488;2022-08-03T18:05:05;20.40;;;5.97;;
22632;SDS011;11483;55.828;37.488;2022-08-03T18:07:54;20.90;;;6.20;;
22632;SDS011;11483;55.828;37.488;2022-08-03T18:10:21;23.33;;;6.30;;
22632;SDS011;11483;55.828;37.488;2022-08-03T18:15:26;17.40;;;5.97;;
22632;SDS011;11483;55.828;37.488;2022-08-03T18:17:54;20.77;;;5.88;;
22632;SDS011;11483;55.828;37.488;2022-08-03T18:20:23;17.00;;;6.20;;
22632;SDS011;11483;55.828;37.488;2022-08-03T18:22:49;22.00;;;6.07;;
22632;SDS011;11483;55.828;37.488;2022-08-03T18:25:15;17.50;;;6.10;;
22632;SDS011;11483;55.828;37.488;2022-08-03T18:27:44;18.17;;;5.88;;
22632;SDS011;11483;55.828;37.488;2022-08-03T18:30:11;16.25;;;5.57;;
22632;SDS011;11483;55.828;37.488;2022-08-03T18:32:39;19.13;;;6.25;;
22632;SDS011;11483;55.828;37.488;2022-08-03T18:35:05;40.13;;;6.85;;
22632;SDS011;11483;55.828;37.488;2022-08-03T18:37:32;11.40;;;5.72;;
22632;SDS011;11483;55.828;37.488;2022-08-03T18:40:00;15.95;;;5.45;;
22632;SDS011;11483;55.828;37.488;2022-08-03T18:42:28;25.63;;;5.13;;
22632;SDS011;11483;55.828;37.488;2022-08-03T18:44:55;12.88;;;4.65;;
22632;SDS011;11483;55.828;37.488;2022-08-03T18:47:34;9.00;;;5.00;;
22632;SDS011;11483;55.828;37.488;2022-08-03T18:52:57;11.18;;;5.40;;
22632;SDS011;11483;55.828;37.488;2022-08-03T18:55:33;17.10;;;5.25;;
22632;SDS011;11483;55.828;37.488;2022-08-03T19:00:44;14.25;;;4.97;;
22632;SDS011;11483;55.828;37.488;2022-08-03T19:03:23;10.23;;;4.90;;